MHLC

Details ICAO MHLC (LCE)
Name Goloson Intl
Region Honduras
Timezone America/Tegucigalpa (UTC-6.0)
Plans Departing 19
Arriving 16
Stats Elevation 49 ft / 15 m (AMSL)
Location 15.742480° -86.853036°
Runways 1
Magnetic Variation 1.192° W
Sunrise 2018-05-26 11:17:08 UTC / 2018-05-26 05:17:08 Local
Sunset 2018-05-27 00:14:42 UTC / 2018-05-26 18:14:42 Local
Advertisement - Login to hide

Runways

ID Width Length Bearing (true) Bearing (mag) Surface Threshold Offset Overrun Length
07 147 ft / 45 m 9,867 ft / 3,008 m 66.97° 68.16° Asphalt 813 ft / 248 m 0 ft / 0 m
25 147 ft / 45 m 9,867 ft / 3,008 m 246.98° 248.17° Asphalt 200 ft / 61 m 804 ft / 245 m

Map

Weather


0- 5 10 15 20 25 30 35+ Temperature / ° C

Clouds and Precipitation
Forecast for 2018-05-26 12:00 UTC. Updated 33 minutes ago

Ground ~20,000 ft ~40,000 ft Winds

METAR

MHLC 261100Z 00000KT 9999 FEW024CB BKN200 24/22 Q1008 A2977 NOSIG

TAF

Not found

Frequencies

Ground 121.90 MHz GND
Tower 118.50 MHz TWR
Warning: Do not use this data for real-world aviation or navigation. No guarantee of current accuracy is given.